Time;durP1;ratioP1;P1;durP2;ratioP2;P2;SDS_P1;SDS_P2;PMS_P1;PMS_P2;Temp;Humidity;BMP_temperature;BMP_pressure;BME280_temperature;BME280_humidity;BME280_pressure;Samples;Min_cycle;Max_cycle;Signal;HPM_P1;HPM_P2
2022/07/27 00:01:49;;;;;;;11.87;10.83;;;16.40;99.90;;;;;;5043123;28;20930;-68
2022/07/27 00:04:16;;;;;;;10.67;9.97;;;16.40;99.90;;;;;;5039793;28;20487;-70
2022/07/27 00:06:44;;;;;;;12.00;10.23;;;16.40;99.90;;;;;;5043775;28;20452;-69
2022/07/27 00:09:11;;;;;;;10.90;10.10;;;16.40;99.90;;;;;;5040967;28;20529;-68
2022/07/27 00:11:39;;;;;;;10.87;10.07;;;16.30;99.90;;;;;;5039354;28;20463;-69
2022/07/27 00:14:07;;;;;;;12.37;11.37;;;16.30;99.90;;;;;;5042217;28;20464;-68
2022/07/27 00:16:38;;;;;;;11.30;10.40;;;16.30;99.90;;;;;;5041461;28;20878;-68
2022/07/27 00:19:05;;;;;;;10.40;9.93;;;16.30;99.90;;;;;;5043460;28;20514;-68
2022/07/27 00:21:33;;;;;;;11.10;10.00;;;16.30;99.90;;;;;;5046371;28;20475;-68
2022/07/27 00:24:01;;;;;;;10.17;9.53;;;16.30;99.90;;;;;;5041287;28;20479;-68
2022/07/27 00:26:28;;;;;;;10.43;9.80;;;16.30;99.90;;;;;;5039824;28;20858;-68
2022/07/27 00:28:55;;;;;;;11.80;11.10;;;16.30;99.90;;;;;;5042049;28;20981;-68
2022/07/27 00:31:22;;;;;;;11.10;10.30;;;16.30;99.90;;;;;;5039323;28;20460;-68
2022/07/27 00:33:50;;;;;;;11.10;10.40;;;16.20;99.90;;;;;;5041190;28;20486;-68
2022/07/27 00:36:17;;;;;;;10.80;9.97;;;16.20;99.90;;;;;;5038143;28;20459;-68
2022/07/27 00:38:44;;;;;;;10.87;10.03;;;16.30;99.90;;;;;;5038475;28;20476;-69
2022/07/27 00:41:12;;;;;;;10.93;10.20;;;16.10;99.90;;;;;;5040272;28;20491;-68
2022/07/27 00:43:53;;;;;;;11.73;10.57;;;16.10;99.90;;;;;;5038736;28;20491;-68
2022/07/27 00:46:21;;;;;;;11.33;10.33;;;16.10;99.90;;;;;;5044567;28;20491;-68
2022/07/27 00:48:49;;;;;;;10.87;9.90;;;16.10;99.90;;;;;;5041012;28;20486;-69
2022/07/27 00:51:20;;;;;;;10.93;10.23;;;16.10;99.90;;;;;;5040561;28;20472;-69
2022/07/27 00:53:47;;;;;;;10.40;9.70;;;16.10;99.90;;;;;;5038157;28;20471;-68
2022/07/27 00:56:14;;;;;;;10.83;10.23;;;16.00;99.90;;;;;;5037345;28;20467;-68
2022/07/27 00:58:44;;;;;;;12.20;10.40;;;15.90;99.90;;;;;;5037733;28;20452;-68
2022/07/27 01:01:11;;;;;;;11.20;10.40;;;15.80;99.90;;;;;;5039887;28;20467;-66
2022/07/27 01:03:38;;;;;;;10.03;9.47;;;15.70;99.90;;;;;;5043408;28;20456;-66
2022/07/27 01:06:05;;;;;;;11.50;10.70;;;15.80;99.90;;;;;;5037310;28;20464;-66
2022/07/27 01:08:34;;;;;;;12.40;10.23;;;15.80;99.90;;;;;;5040194;28;20455;-66
2022/07/27 01:11:02;;;;;;;10.60;9.90;;;15.80;99.90;;;;;;5042436;28;20467;-66
2022/07/27 01:13:30;;;;;;;10.83;10.17;;;15.70;99.90;;;;;;5036087;28;20837;-65
2022/07/27 01:15:58;;;;;;;13.60;10.20;;;15.70;99.90;;;;;;5038747;28;20489;-66
2022/07/27 01:18:30;;;;;;;11.33;10.60;;;15.70;99.90;;;;;;5045499;28;20871;-66
2022/07/27 01:20:58;;;;;;;10.60;10.10;;;15.50;99.90;;;;;;5038433;28;20464;-66
2022/07/27 01:23:31;;;;;;;11.27;10.27;;;15.40;99.90;;;;;;5041000;28;20686;-66
2022/07/27 01:25:59;;;;;;;10.87;10.17;;;15.30;99.90;;;;;;5038557;28;20460;-66
2022/07/27 01:28:26;;;;;;;10.37;9.73;;;15.30;99.90;;;;;;5045130;28;20464;-66
2022/07/27 01:30:54;;;;;;;10.80;10.00;;;15.20;99.90;;;;;;5039393;28;20471;-66
2022/07/27 01:33:24;;;;;;;10.83;9.97;;;15.10;99.90;;;;;;5042191;28;20460;-66
2022/07/27 01:35:53;;;;;;;10.93;9.87;;;15.00;99.90;;;;;;5036366;28;20456;-66
2022/07/27 01:38:20;;;;;;;10.97;10.10;;;15.00;99.90;;;;;;5035126;28;20475;-66
2022/07/27 01:40:50;;;;;;;10.63;9.90;;;14.80;99.90;;;;;;5039278;28;20477;-66
2022/07/27 01:43:17;;;;;;;10.93;9.97;;;14.70;99.90;;;;;;5038743;28;20490;-66
2022/07/27 01:45:43;;;;;;;10.50;9.90;;;14.50;99.90;;;;;;5041928;28;20492;-65
2022/07/27 01:48:10;;;;;;;10.50;9.80;;;14.40;99.90;;;;;;5033888;28;21008;-66
2022/07/27 01:50:37;;;;;;;11.00;9.90;;;14.30;99.90;;;;;;5034891;28;20470;-66
2022/07/27 01:53:04;;;;;;;10.27;9.60;;;14.30;99.90;;;;;;5041046;28;20456;-65
2022/07/27 01:55:31;;;;;;;10.60;9.73;;;14.10;99.90;;;;;;5038016;28;20745;-66
2022/07/27 01:58:02;;;;;;;11.47;10.27;;;14.00;99.90;;;;;;5043811;28;20467;-66
2022/07/27 02:00:29;;;;;;;11.40;10.40;;;13.80;99.90;;;;;;5043069;28;20883;-65
2022/07/27 02:02:56;;;;;;;10.57;9.80;;;13.70;99.90;;;;;;5040044;28;20974;-66
2022/07/27 02:05:23;;;;;;;10.80;9.90;;;13.60;99.90;;;;;;5042273;28;20499;-66
2022/07/27 02:07:50;;;;;;;10.70;10.10;;;13.50;99.90;;;;;;5035632;28;20462;-66
2022/07/27 02:10:17;;;;;;;11.30;9.60;;;13.50;99.90;;;;;;5044661;28;20466;-65
2022/07/27 02:12:43;;;;;;;11.27;10.47;;;13.40;99.90;;;;;;5041005;28;20476;-65
2022/07/27 02:15:14;;;;;;;9.80;9.20;;;13.30;99.90;;;;;;5039841;28;20479;-67
2022/07/27 02:17:42;;;;;;;11.00;10.00;;;13.20;99.90;;;;;;5036848;28;20507;-66
2022/07/27 02:20:10;;;;;;;9.70;9.20;;;13.20;99.90;;;;;;5037851;28;20460;-66
2022/07/27 02:22:38;;;;;;;11.00;10.10;;;13.10;99.90;;;;;;5038269;28;20461;-66
2022/07/27 02:25:06;;;;;;;9.70;9.20;;;13.00;99.90;;;;;;5041180;28;20502;-66
2022/07/27 02:27:33;;;;;;;10.30;9.70;;;13.00;99.90;;;;;;5043738;28;20547;-65
2022/07/27 02:29:59;;;;;;;10.40;9.47;;;12.90;99.90;;;;;;5044275;28;20830;-66
2022/07/27 02:32:28;;;;;;;10.97;10.17;;;12.90;99.90;;;;;;5043992;28;20456;-65
2022/07/27 02:34:55;;;;;;;10.67;9.73;;;12.70;99.90;;;;;;5046135;28;21198;-65
2022/07/27 02:37:22;;;;;;;9.70;9.10;;;12.70;99.90;;;;;;5046605;28;20459;-66
2022/07/27 02:39:49;;;;;;;9.80;9.30;;;12.60;99.90;;;;;;5045574;28;20479;-65
2022/07/27 02:42:16;;;;;;;9.43;8.60;;;12.60;99.90;;;;;;5041802;28;20498;-65
2022/07/27 02:44:43;;;;;;;11.73;9.73;;;12.50;99.90;;;;;;5041055;28;20490;-66
2022/07/27 02:47:11;;;;;;;10.57;9.23;;;12.50;99.90;;;;;;5043951;28;20475;-66
2022/07/27 02:49:39;;;;;;;9.23;8.80;;;12.40;99.90;;;;;;5044443;28;20448;-66
2022/07/27 02:52:07;;;;;;;9.80;9.20;;;12.30;99.90;;;;;;5045535;28;20464;-65
2022/07/27 02:54:34;;;;;;;9.57;8.90;;;12.30;99.90;;;;;;5045253;28;20470;-66
2022/07/27 02:57:03;;;;;;;10.30;9.53;;;12.30;99.90;;;;;;5043828;28;20903;-66
2022/07/27 02:59:31;;;;;;;9.47;8.77;;;12.20;99.90;;;;;;5044898;28;20864;-67
2022/07/27 03:01:58;;;;;;;9.93;9.33;;;12.10;99.90;;;;;;5041257;28;20476;-68
2022/07/27 03:04:25;;;;;;;9.77;9.07;;;12.00;99.90;;;;;;5047856;28;20488;-68
2022/07/27 03:06:54;;;;;;;10.10;9.20;;;12.00;99.90;;;;;;5044567;28;20482;-68
2022/07/27 03:09:21;;;;;;;10.30;9.40;;;12.00;99.90;;;;;;5042129;28;20472;-69
2022/07/27 03:11:49;;;;;;;15.07;10.10;;;11.80;99.90;;;;;;5037683;28;21127;-68
2022/07/27 03:14:16;;;;;;;10.43;9.60;;;11.80;99.90;;;;;;5045431;28;20490;-69
2022/07/27 03:16:43;;;;;;;11.27;10.20;;;11.70;99.90;;;;;;5046388;28;20489;-69
2022/07/27 03:19:11;;;;;;;11.40;10.30;;;11.60;99.90;;;;;;5040178;28;20554;-70
2022/07/27 03:21:39;;;;;;;11.17;9.90;;;11.50;99.90;;;;;;5044266;28;20468;-69
2022/07/27 03:24:08;;;;;;;15.77;10.70;;;11.50;99.90;;;;;;5042118;28;20499;-69
2022/07/27 03:26:34;;;;;;;10.37;9.70;;;11.40;99.90;;;;;;5038097;28;20579;-68
2022/07/27 03:29:02;;;;;;;10.37;9.67;;;11.40;99.90;;;;;;5044388;28;20461;-68
2022/07/27 03:31:28;;;;;;;10.67;9.67;;;11.40;99.90;;;;;;5038880;28;21053;-68
2022/07/27 03:33:55;;;;;;;11.27;9.90;;;11.30;99.90;;;;;;5040099;28;20468;-69
2022/07/27 03:36:23;;;;;;;13.07;9.80;;;11.30;99.90;;;;;;5041143;28;20460;-69
2022/07/27 03:38:51;;;;;;;10.20;9.60;;;11.20;99.90;;;;;;5037513;28;20448;-67
2022/07/27 03:41:20;;;;;;;10.83;9.93;;;11.20;99.90;;;;;;5045246;28;20896;-69
2022/07/27 03:43:47;;;;;;;15.90;10.00;;;11.20;99.90;;;;;;5043893;28;20458;-68
2022/07/27 03:46:15;;;;;;;10.30;9.80;;;11.10;99.90;;;;;;5042894;28;20480;-68
2022/07/27 03:48:42;;;;;;;11.03;10.33;;;11.10;99.90;;;;;;5039919;28;20490;-68
2022/07/27 03:51:09;;;;;;;11.33;10.53;;;11.00;99.90;;;;;;5043537;28;20470;-68
2022/07/27 03:53:37;;;;;;;11.50;10.37;;;10.90;99.90;;;;;;5039506;28;20522;-68
2022/07/27 03:56:05;;;;;;;10.97;10.10;;;10.90;99.90;;;;;;5039472;28;20475;-67
2022/07/27 03:58:33;;;;;;;11.63;10.53;;;10.80;99.90;;;;;;5042771;28;20466;-68
2022/07/27 04:01:00;;;;;;;11.10;10.40;;;10.80;99.90;;;;;;5034572;28;20471;-67
2022/07/27 04:03:26;;;;;;;11.83;10.80;;;10.80;99.90;;;;;;5040220;28;20471;-67
2022/07/27 04:05:54;;;;;;;12.17;10.40;;;10.80;99.90;;;;;;5032803;28;20498;-68
2022/07/27 04:08:21;;;;;;;12.60;11.50;;;10.80;99.90;;;;;;5015135;28;20467;-68
2022/07/27 04:10:48;;;;;;;11.73;10.70;;;10.80;99.90;;;;;;5016770;28;20503;-69
2022/07/27 04:13:17;;;;;;;13.33;10.60;;;10.80;99.90;;;;;;5015417;28;20468;-69
2022/07/27 04:15:45;;;;;;;12.03;10.90;;;10.80;99.90;;;;;;5014550;28;20963;-68
2022/07/27 04:18:12;;;;;;;11.97;11.27;;;10.80;99.90;;;;;;5016867;28;20518;-68
2022/07/27 04:20:39;;;;;;;13.37;11.30;;;10.80;99.90;;;;;;5016508;28;21007;-68
2022/07/27 04:23:21;;;;;;;13.33;12.10;;;10.80;99.90;;;;;;5016249;28;21123;-68
2022/07/27 04:25:47;;;;;;;13.30;10.83;;;10.90;99.90;;;;;;5014574;28;20553;-67
2022/07/27 04:28:14;;;;;;;12.53;11.33;;;10.90;99.90;;;;;;5014257;28;21150;-68
2022/07/27 04:30:41;;;;;;;14.10;11.73;;;10.90;99.90;;;;;;5015076;28;20584;-68
2022/07/27 04:33:10;;;;;;;13.00;11.77;;;10.90;99.90;;;;;;5016130;28;20463;-68
2022/07/27 04:35:37;;;;;;;14.13;12.83;;;10.90;99.90;;;;;;5016425;28;20492;-68
2022/07/27 04:38:04;;;;;;;13.63;12.30;;;11.00;99.90;;;;;;5013556;28;20457;-68
2022/07/27 04:40:32;;;;;;;15.90;12.70;;;11.00;99.90;;;;;;5014117;28;20479;-67
2022/07/27 04:43:00;;;;;;;15.10;13.80;;;11.00;99.90;;;;;;5015046;28;20457;-67
2022/07/27 04:45:27;;;;;;;15.13;13.73;;;11.00;99.90;;;;;;5014552;28;20623;-67
2022/07/27 04:47:54;;;;;;;16.10;12.43;;;11.10;99.90;;;;;;5015379;28;20453;-69
2022/07/27 04:50:22;;;;;;;14.00;11.57;;;11.10;99.90;;;;;;5015523;28;20468;-69
2022/07/27 04:52:49;;;;;;;13.70;12.60;;;11.10;99.90;;;;;;5014718;28;20457;-68
2022/07/27 04:55:16;;;;;;;13.63;12.40;;;11.20;99.90;;;;;;5014888;28;20939;-68
2022/07/27 04:57:43;;;;;;;15.83;14.20;;;11.20;99.90;;;;;;5016244;28;20475;-67
2022/07/27 05:00:11;;;;;;;14.27;12.80;;;11.30;99.90;;;;;;5015863;28;21001;-67
2022/07/27 05:02:39;;;;;;;15.70;14.07;;;11.40;99.90;;;;;;5014042;28;20460;-68
2022/07/27 05:05:07;;;;;;;15.40;13.70;;;11.40;99.90;;;;;;5015532;28;20870;-68
2022/07/27 05:07:35;;;;;;;17.10;15.13;;;11.50;99.90;;;;;;5015451;28;20468;-68
2022/07/27 05:10:02;;;;;;;15.20;13.80;;;11.60;99.90;;;;;;5014312;28;20464;-68
2022/07/27 05:12:28;;;;;;;15.60;14.17;;;11.70;99.90;;;;;;5013499;28;20460;-68
2022/07/27 05:14:55;;;;;;;18.87;14.60;;;11.90;99.90;;;;;;5015133;28;20833;-67
2022/07/27 05:17:22;;;;;;;18.00;14.50;;;12.00;99.90;;;;;;5013422;28;20464;-67
2022/07/27 05:19:49;;;;;;;15.30;13.83;;;12.10;99.90;;;;;;5015411;28;20931;-66
2022/07/27 05:22:16;;;;;;;18.73;14.00;;;12.20;99.90;;;;;;5015722;28;20459;-66
2022/07/27 05:24:45;;;;;;;14.23;13.23;;;12.30;99.90;;;;;;5015172;28;20479;-68
2022/07/27 05:27:12;;;;;;;15.53;14.13;;;12.40;99.90;;;;;;5014197;28;20471;-67
2022/07/27 05:29:39;;;;;;;22.90;14.40;;;12.40;99.90;;;;;;5013395;28;21188;-67
2022/07/27 05:32:06;;;;;;;15.73;14.33;;;12.60;99.90;;;;;;5014722;28;21014;-67
2022/07/27 05:34:33;;;;;;;15.30;13.67;;;12.70;99.90;;;;;;5014928;28;20474;-67
2022/07/27 05:37:01;;;;;;;14.67;13.57;;;12.80;99.90;;;;;;5015288;28;20475;-68
2022/07/27 05:39:28;;;;;;;14.87;13.60;;;12.90;99.90;;;;;;5014476;28;20483;-68
2022/07/27 05:41:56;;;;;;;15.87;13.93;;;12.90;99.90;;;;;;5014985;28;20468;-66
2022/07/27 05:44:23;;;;;;;25.77;15.30;;;13.10;99.90;;;;;;5015223;28;20478;-68
2022/07/27 05:46:50;;;;;;;15.10;13.87;;;13.20;99.90;;;;;;5013271;28;20495;-67
2022/07/27 05:49:17;;;;;;;15.90;13.43;;;13.30;99.90;;;;;;5013976;28;20817;-68
2022/07/27 05:51:43;;;;;;;18.40;14.13;;;13.40;99.90;;;;;;5014379;28;20475;-67
2022/07/27 05:54:10;;;;;;;17.00;13.20;;;13.40;99.90;;;;;;5015196;28;20469;-67
2022/07/27 05:56:37;;;;;;;16.00;13.60;;;13.60;99.90;;;;;;5014891;28;20456;-68
2022/07/27 05:59:06;;;;;;;19.03;12.03;;;13.70;99.90;;;;;;5016809;28;20463;-68
2022/07/27 06:01:33;;;;;;;12.50;11.63;;;13.80;99.90;;;;;;5019011;28;20874;-67
2022/07/27 06:04:00;;;;;;;12.60;11.53;;;13.90;99.90;;;;;;5021972;28;20464;-67
2022/07/27 06:09:12;;;;;;;13.87;12.30;;;13.90;99.90;;;;;;5022684;28;20458;-67
2022/07/27 06:11:39;;;;;;;12.70;11.90;;;14.00;99.90;;;;;;5044057;28;20462;-66
2022/07/27 06:14:07;;;;;;;13.07;11.73;;;14.20;99.90;;;;;;5022467;28;20953;-68
2022/07/27 06:16:35;;;;;;;12.97;11.93;;;14.30;99.90;;;;;;5016219;28;20515;-68
2022/07/27 06:19:01;;;;;;;13.00;12.00;;;14.30;99.90;;;;;;5016407;28;20467;-69
2022/07/27 06:21:28;;;;;;;14.63;11.50;;;14.40;99.90;;;;;;5019479;28;20568;-66
2022/07/27 06:23:55;;;;;;;15.37;12.77;;;14.60;99.90;;;;;;5017985;28;20463;-68
2022/07/27 06:26:22;;;;;;;13.67;12.47;;;14.70;99.90;;;;;;5017383;28;20479;-69
2022/07/27 06:28:50;;;;;;;12.60;11.60;;;14.90;99.90;;;;;;5017725;28;20573;-68
2022/07/27 06:31:18;;;;;;;12.37;11.50;;;14.90;99.90;;;;;;5016536;28;20848;-67
2022/07/27 06:33:45;;;;;;;15.40;12.13;;;15.00;99.90;;;;;;5017370;28;20583;-67
2022/07/27 06:36:12;;;;;;;13.17;12.17;;;15.10;99.90;;;;;;5017764;28;20926;-67
2022/07/27 06:38:39;;;;;;;16.10;13.97;;;15.20;99.90;;;;;;5017016;28;20555;-67
2022/07/27 06:41:05;;;;;;;13.73;12.60;;;15.30;99.90;;;;;;5017221;28;20542;-68
2022/07/27 06:43:33;;;;;;;14.07;12.73;;;15.30;99.90;;;;;;5017411;28;20494;-67
2022/07/27 06:45:59;;;;;;;14.10;13.17;;;15.40;99.90;;;;;;5016313;28;20487;-68
2022/07/27 06:48:27;;;;;;;14.30;13.47;;;15.50;99.90;;;;;;5015915;28;21005;-67
2022/07/27 06:50:56;;;;;;;15.10;13.53;;;15.70;99.90;;;;;;5016881;28;20471;-68
2022/07/27 06:53:23;;;;;;;15.50;14.17;;;15.70;99.90;;;;;;5017541;28;20471;-67
2022/07/27 06:55:50;;;;;;;15.53;14.27;;;15.80;99.90;;;;;;5017021;28;20986;-68
2022/07/27 06:58:18;;;;;;;13.83;12.97;;;16.00;99.90;;;;;;5016504;28;20463;-67
2022/07/27 07:00:46;;;;;;;15.13;13.80;;;16.00;99.90;;;;;;5015862;28;20465;-67
2022/07/27 07:03:13;;;;;;;14.10;13.37;;;16.00;99.90;;;;;;5019382;28;21223;-67
2022/07/27 07:05:45;;;;;;;16.37;15.17;;;16.10;99.90;;;;;;5038522;28;20476;-66
2022/07/27 07:08:13;;;;;;;14.53;13.70;;;16.20;99.90;;;;;;5043309;28;20841;-66
2022/07/27 07:10:41;;;;;;;14.87;13.87;;;16.30;99.90;;;;;;5029042;28;20499;-66
2022/07/27 07:13:08;;;;;;;15.20;14.20;;;16.40;99.90;;;;;;5016006;28;20468;-66
2022/07/27 07:15:36;;;;;;;14.50;13.80;;;16.50;99.90;;;;;;5016329;28;20545;-67
2022/07/27 07:18:03;;;;;;;14.50;13.37;;;16.50;99.90;;;;;;5016337;28;20452;-67
2022/07/27 07:20:31;;;;;;;14.67;13.70;;;16.60;99.90;;;;;;5016495;28;20483;-67
2022/07/27 07:23:00;;;;;;;14.53;13.67;;;16.60;99.90;;;;;;5016994;28;20475;-67
2022/07/27 07:25:27;;;;;;;15.23;14.10;;;16.80;99.90;;;;;;5015764;28;21111;-67
2022/07/27 07:27:54;;;;;;;16.10;14.57;;;16.90;99.90;;;;;;5017121;28;21759;-67
2022/07/27 07:30:22;;;;;;;14.67;13.77;;;17.20;99.90;;;;;;5016567;28;20459;-66
2022/07/27 07:32:49;;;;;;;15.60;14.50;;;17.40;99.90;;;;;;5017147;28;20938;-67
2022/07/27 07:35:16;;;;;;;17.10;15.60;;;17.70;99.90;;;;;;5016636;28;20464;-66
2022/07/27 07:37:44;;;;;;;16.40;14.80;;;17.90;99.90;;;;;;5016363;28;21230;-67
2022/07/27 07:40:12;;;;;;;15.53;14.37;;;18.00;99.90;;;;;;5016068;28;21029;-67
2022/07/27 07:42:50;;;;;;;16.20;14.90;;;18.10;99.90;;;;;;5016309;28;20877;-67
2022/07/27 07:45:17;;;;;;;15.50;14.30;;;18.00;99.90;;;;;;5016716;28;21096;-66
2022/07/27 07:47:44;;;;;;;15.50;14.70;;;18.00;99.90;;;;;;5016474;28;20561;-67
2022/07/27 07:50:11;;;;;;;15.70;14.77;;;17.90;99.90;;;;;;5016405;28;21207;-68
2022/07/27 07:52:37;;;;;;;14.87;13.83;;;17.90;99.90;;;;;;5016057;28;20836;-67
2022/07/27 07:55:05;;;;;;;14.90;14.10;;;18.00;99.90;;;;;;5016224;28;20472;-67
2022/07/27 07:57:34;;;;;;;16.07;14.90;;;18.10;99.90;;;;;;5015882;28;20465;-67
2022/07/27 08:00:01;;;;;;;15.03;14.10;;;18.10;99.90;;;;;;5015905;28;20464;-68
2022/07/27 08:02:27;;;;;;;15.83;14.50;;;18.20;99.90;;;;;;5037504;28;20475;-67
2022/07/27 08:04:54;;;;;;;16.13;14.50;;;18.20;99.90;;;;;;5039167;28;20962;-67
2022/07/27 08:07:21;;;;;;;15.93;15.00;;;18.30;99.90;;;;;;5027022;28;20492;-67
2022/07/27 08:09:48;;;;;;;15.53;14.40;;;18.40;99.90;;;;;;5015510;28;20463;-67
2022/07/27 08:12:15;;;;;;;15.73;14.60;;;18.50;99.90;;;;;;5015667;28;20942;-68
2022/07/27 08:14:43;;;;;;;15.07;14.27;;;18.50;99.90;;;;;;5014424;28;20483;-68
2022/07/27 08:17:10;;;;;;;16.20;14.57;;;18.50;99.90;;;;;;5015425;28;20475;-67
2022/07/27 08:19:37;;;;;;;15.90;14.90;;;18.40;99.90;;;;;;5015322;28;20475;-68
2022/07/27 08:22:03;;;;;;;15.47;14.20;;;18.40;99.90;;;;;;5015575;28;20872;-67
2022/07/27 08:24:31;;;;;;;15.60;14.63;;;18.50;99.90;;;;;;5014102;28;20511;-66
2022/07/27 08:26:58;;;;;;;15.63;14.50;;;18.70;99.90;;;;;;5014925;28;20857;-67
2022/07/27 08:29:24;;;;;;;15.90;14.90;;;19.00;99.90;;;;;;5014547;28;20456;-67
2022/07/27 08:31:53;;;;;;;15.57;14.73;;;19.50;99.90;;;;;;5015281;28;20461;-67
2022/07/27 08:34:20;;;;;;;15.17;14.37;;;19.30;99.90;;;;;;5014890;28;20475;-66
2022/07/27 08:36:47;;;;;;;15.83;14.70;;;19.30;99.90;;;;;;5015329;28;20559;-67
2022/07/27 08:39:14;;;;;;;15.80;14.80;;;19.40;99.90;;;;;;5015308;28;20509;-67
2022/07/27 08:41:41;;;;;;;15.47;14.47;;;19.60;99.90;;;;;;5015612;28;20879;-67
2022/07/27 08:44:11;;;;;;;15.10;14.30;;;19.60;99.90;;;;;;5014964;28;20546;-67
2022/07/27 08:46:39;;;;;;;15.10;14.20;;;19.30;99.90;;;;;;5015100;28;20495;-67
2022/07/27 08:49:08;;;;;;;14.93;14.10;;;19.20;99.90;;;;;;5015003;28;20513;-68
2022/07/27 08:51:35;;;;;;;14.80;14.00;;;19.00;99.90;;;;;;5015341;28;21497;-68
2022/07/27 08:54:02;;;;;;;14.60;14.00;;;19.20;99.90;;;;;;5014861;28;20463;-67
2022/07/27 08:56:29;;;;;;;15.47;14.67;;;19.40;99.90;;;;;;5014643;28;20471;-67
2022/07/27 08:58:56;;;;;;;16.00;15.07;;;19.20;99.90;;;;;;5014809;28;20475;-67
2022/07/27 09:01:23;;;;;;;16.83;15.37;;;19.60;99.90;;;;;;5014290;28;20482;-68
2022/07/27 09:03:51;;;;;;;15.83;15.10;;;20.70;99.90;;;;;;5023461;28;20488;-67
2022/07/27 09:06:44;;;;;;;15.63;14.73;;;22.20;99.90;;;;;;5038674;28;20481;-67
2022/07/27 09:09:12;;;;;;;15.93;15.10;;;23.50;99.30;;;;;;5025465;28;20464;-67
2022/07/27 09:11:39;;;;;;;16.17;15.27;;;23.90;96.90;;;;;;5014952;28;20475;-66
2022/07/27 09:14:09;;;;;;;16.37;15.33;;;24.40;93.60;;;;;;5015175;28;20457;-67
2022/07/27 09:16:36;;;;;;;15.60;14.80;;;24.40;92.30;;;;;;5014193;28;20487;-68
2022/07/27 09:19:05;;;;;;;16.20;15.17;;;24.50;91.10;;;;;;5014155;28;20451;-67
2022/07/27 09:21:33;;;;;;;15.60;14.70;;;24.20;90.30;;;;;;5014679;28;20552;-67
2022/07/27 09:24:12;;;;;;;15.63;14.73;;;23.60;90.40;;;;;;5014604;28;20468;-67
2022/07/27 09:26:39;;;;;;;16.63;15.60;;;23.80;89.40;;;;;;5013931;28;20502;-67
2022/07/27 09:29:08;;;;;;;16.40;15.50;;;25.10;87.90;;;;;;5013736;28;20967;-67
2022/07/27 09:31:42;;;;;;;16.47;15.47;;;25.90;84.90;;;;;;5012681;28;21093;-68
2022/07/27 09:34:09;;;;;;;16.13;15.23;;;27.40;78.20;;;;;;5012769;28;20464;-69
2022/07/27 09:36:51;;;;;;;16.03;15.13;;;27.80;73.50;;;;;;5016240;28;20488;-68
2022/07/27 09:39:21;;;;;;;15.80;15.00;;;27.50;66.70;;;;;;5016351;28;20465;-67
2022/07/27 09:41:51;;;;;;;15.97;14.80;;;25.80;68.90;;;;;;5016929;28;20632;-67
2022/07/27 09:44:31;;;;;;;15.50;14.60;;;24.30;75.10;;;;;;5017040;28;20468;-68
2022/07/27 09:46:58;;;;;;;15.23;14.27;;;23.00;81.00;;;;;;5016110;28;20499;-67
2022/07/27 09:49:30;;;;;;;14.93;14.10;;;22.50;85.30;;;;;;5015898;28;21235;-67
2022/07/27 09:51:58;;;;;;;15.40;14.60;;;22.00;88.90;;;;;;5014168;28;20490;-68
2022/07/27 09:54:28;;;;;;;15.60;14.60;;;21.80;90.30;;;;;;5015007;28;20471;-68
2022/07/27 09:57:00;;;;;;;15.73;14.50;;;21.60;91.80;;;;;;5016691;28;20464;-68
2022/07/27 09:59:28;;;;;;;15.27;14.27;;;21.30;92.20;;;;;;5016345;28;20506;-67
2022/07/27 10:01:56;;;;;;;16.17;14.90;;;21.10;93.60;;;;;;5020900;28;20463;-67
2022/07/27 10:04:25;;;;;;;15.10;14.10;;;20.80;94.20;;;;;;5038697;28;20467;-67
2022/07/27 10:06:52;;;;;;;14.87;14.07;;;20.60;95.90;;;;;;5018754;28;21033;-67
2022/07/27 10:09:19;;;;;;;15.50;14.60;;;20.60;96.00;;;;;;5015707;28;20483;-68
2022/07/27 10:11:48;;;;;;;15.17;14.47;;;20.90;96.90;;;;;;5018403;28;20501;-68
2022/07/27 10:14:15;;;;;;;14.80;14.00;;;21.20;94.30;;;;;;5018165;28;21071;-67
2022/07/27 10:16:48;;;;;;;15.93;14.67;;;21.40;94.60;;;;;;5017259;28;21621;-68
2022/07/27 10:19:20;;;;;;;15.13;14.47;;;21.70;94.40;;;;;;5017991;28;20491;-67
2022/07/27 10:21:48;;;;;;;15.43;14.63;;;21.50;93.10;;;;;;5017445;28;20464;-68
2022/07/27 10:24:25;;;;;;;15.83;14.80;;;21.50;92.20;;;;;;5018178;28;20554;-67
2022/07/27 10:26:53;;;;;;;15.20;14.33;;;21.80;92.70;;;;;;5017643;28;20479;-68
2022/07/27 10:29:21;;;;;;;16.20;15.20;;;22.10;92.30;;;;;;5017940;28;20844;-67
2022/07/27 10:32:08;;;;;;;15.30;14.60;;;22.40;91.30;;;;;;5018014;28;20466;-68
2022/07/27 10:34:37;;;;;;;15.80;14.73;;;22.70;90.00;;;;;;5017440;28;20460;-68
2022/07/27 10:37:11;;;;;;;15.20;14.30;;;22.50;90.10;;;;;;5017744;28;20793;-67
2022/07/27 10:39:41;;;;;;;15.30;14.50;;;22.00;90.00;;;;;;5016997;28;20490;-67
2022/07/27 10:42:32;;;;;;;15.37;14.57;;;22.10;88.30;;;;;;5017123;28;20475;-68
2022/07/27 10:45:02;;;;;;;16.23;14.90;;;22.40;89.90;;;;;;5017766;28;20467;-67
2022/07/27 10:47:32;;;;;;;16.47;15.43;;;22.90;85.20;;;;;;5017200;28;20503;-68
2022/07/27 10:50:28;;;;;;;15.40;14.70;;;23.10;87.10;;;;;;5016815;28;20468;-68
2022/07/27 10:52:57;;;;;;;15.47;14.67;;;23.40;88.40;;;;;;5016129;28;20954;-67
2022/07/27 10:55:49;;;;;;;17.03;15.93;;;24.20;85.20;;;;;;5016360;28;20482;-68
2022/07/27 10:58:46;;;;;;;16.10;15.30;;;25.00;81.40;;;;;;4999619;28;20476;-68
2022/07/27 11:01:14;;;;;;;15.93;15.20;;;24.80;79.20;;;;;;5035309;28;20461;-68
2022/07/27 11:03:41;;;;;;;15.03;14.33;;;24.20;79.90;;;;;;5017793;28;20456;-69
2022/07/27 11:06:11;;;;;;;15.20;14.50;;;23.50;79.90;;;;;;5017344;28;20464;-67
2022/07/27 11:08:39;;;;;;;14.90;14.20;;;23.00;80.50;;;;;;5017004;28;21093;-67
2022/07/27 11:11:08;;;;;;;14.43;13.73;;;23.10;80.80;;;;;;5017249;28;20472;-68
2022/07/27 11:13:36;;;;;;;15.30;14.50;;;23.20;79.70;;;;;;5017149;28;20460;-68
2022/07/27 11:16:06;;;;;;;14.50;13.90;;;23.50;79.50;;;;;;5017306;28;20586;-68
2022/07/27 11:18:35;;;;;;;14.70;13.90;;;24.50;77.40;;;;;;5018011;28;20989;-68
2022/07/27 11:21:16;;;;;;;16.43;15.63;;;26.20;74.00;;;;;;5016744;28;20464;-68
2022/07/27 11:23:44;;;;;;;16.30;15.40;;;27.30;71.60;;;;;;5017018;28;20480;-68
2022/07/27 11:26:11;;;;;;;16.07;15.27;;;26.60;71.50;;;;;;5016076;28;20467;-68
2022/07/27 11:28:38;;;;;;;16.00;14.90;;;26.10;73.40;;;;;;5015469;28;20486;-69
2022/07/27 11:31:08;;;;;;;15.90;15.00;;;25.10;75.70;;;;;;5017034;28;21061;-68
2022/07/27 11:33:36;;;;;;;15.50;14.80;;;23.90;76.30;;;;;;5014970;28;20465;-68
2022/07/27 11:36:06;;;;;;;15.87;14.97;;;23.10;80.00;;;;;;5016580;28;21700;-67
2022/07/27 11:38:45;;;;;;;15.90;14.73;;;23.10;80.10;;;;;;5015995;28;21176;-68
2022/07/27 11:41:21;;;;;;;15.60;14.70;;;22.70;78.90;;;;;;5012404;28;20561;-68
2022/07/27 11:43:49;;;;;;;15.00;14.23;;;22.90;79.50;;;;;;5014820;28;20460;-68
2022/07/27 11:46:21;;;;;;;14.60;13.80;;;22.90;81.00;;;;;;5016372;28;20474;-68
2022/07/27 11:48:54;;;;;;;15.10;14.10;;;23.20;79.10;;;;;;5014245;28;20493;-68
2022/07/27 11:51:22;;;;;;;15.30;14.20;;;23.20;75.70;;;;;;5015210;28;20468;-68
2022/07/27 11:53:49;;;;;;;14.57;13.53;;;23.30;76.70;;;;;;5017128;28;20994;-67
2022/07/27 11:56:23;;;;;;;14.87;14.13;;;23.70;76.40;;;;;;5042137;28;20499;-67
2022/07/27 11:59:12;;;;;;;14.67;13.90;;;25.20;75.40;;;;;;5022981;28;21083;-69
2022/07/27 12:01:42;;;;;;;15.13;14.13;;;26.60;69.50;;;;;;5006894;28;20475;-69
2022/07/27 12:04:18;;;;;;;14.87;14.17;;;27.40;67.40;;;;;;5013490;28;20473;-68
2022/07/27 12:06:48;;;;;;;15.20;14.07;;;28.10;60.80;;;;;;5013563;28;20475;-68
2022/07/27 12:09:17;;;;;;;15.63;14.63;;;28.10;60.00;;;;;;5015091;28;20488;-68
2022/07/27 12:11:53;;;;;;;15.17;14.37;;;28.50;55.50;;;;;;5015535;28;20460;-68
2022/07/27 12:14:32;;;;;;;15.30;14.40;;;29.40;55.80;;;;;;5013625;28;20963;-68
2022/07/27 12:17:21;;;;;;;16.67;15.53;;;29.00;53.60;;;;;;5014227;28;20468;-68
2022/07/27 12:20:07;;;;;;;15.63;14.73;;;29.30;54.30;;;;;;5015171;28;20494;-69
2022/07/27 12:22:36;;;;;;;15.70;14.73;;;28.40;52.40;;;;;;5015118;28;21002;-70
2022/07/27 12:25:06;;;;;;;15.80;14.70;;;28.40;54.10;;;;;;5013004;28;20511;-69
2022/07/27 12:27:34;;;;;;;14.93;14.13;;;28.20;52.80;;;;;;5013788;28;20503;-68
2022/07/27 12:30:10;;;;;;;14.33;13.73;;;27.50;53.60;;;;;;5014407;28;20467;-68
2022/07/27 12:32:41;;;;;;;14.73;14.03;;;27.00;53.00;;;;;;5014822;28;20470;-69
2022/07/27 12:35:29;;;;;;;14.90;14.20;;;26.70;52.20;;;;;;5015223;28;20468;-68
2022/07/27 12:37:58;;;;;;;14.47;13.77;;;26.00;53.20;;;;;;5014948;28;21009;-68
2022/07/27 12:40:25;;;;;;;14.53;13.83;;;26.10;52.50;;;;;;5015062;28;20516;-68